Kelsey, Minnesota
Current Conditions -  °F | °C
As of 8:31 PM on Sunday 25 Jan 2015 (Local Time) from KEVM Reporting Station
Overcast Overcast  
Wind Chill:   Ceiling: 4900
Heat Index: 19°   Visibility: 10mi
Dew Point: 14°   Wind: 9mph
Humidity: 80%   Direction: 170°S
Pressure: 29.95"   Gusts: NA
Location:  47.1793°N, 92.3523°W
Report Text: KEVM 260231Z AUTO 17008KT 10SM OVC049 M07/M10 A2995 RMK AO2
Loading
Personal Weather Stations






























Interactive Weather Map New forecast layout! Learn more

10-Day Weather Forecast

Advertisements
Track Severe Weather on mobile